Seaforth, Minnesota
Current Conditions -  °F | °C
As of 8:53 AM on Friday 19 Dec 2014 (Local Time) from KRWF Reporting Station
Haze Haze  
Wind Chill: -7°   Ceiling: 2200
Heat Index: -2°   Visibility: 5mi
Dew Point: -3°   Wind: 9mph
Humidity: 92%   Direction: 160°SSE
Pressure: 30.18"   Gusts: NA
Location:  44.48°N, 95.33°W
Report Text: KRWF 191453Z AUTO 16008KT 5SM BR SCT008 OVC022 M02/M03 A3018 RMK AO2 SLP234 T10221033 55003
Loading
Personal Weather Stations






























Interactive Weather Map New forecast layout! Learn more

10-Day Weather Forecast

Advertisements
Track Severe Weather on mobile